createdAt,value
2018-09-04T00:00:49.802Z,100
2018-09-04T00:01:51.921Z,100
2018-09-04T00:02:54.044Z,100
2018-09-04T00:03:56.161Z,100
2018-09-04T00:04:58.288Z,100
2018-09-04T00:06:00.403Z,100
2018-09-04T00:07:02.506Z,100
2018-09-04T00:08:04.642Z,100
2018-09-04T00:09:06.752Z,100
2018-09-04T00:10:08.850Z,100
2018-09-04T00:11:11.415Z,100
2018-09-04T00:12:13.819Z,100
2018-09-04T00:13:15.923Z,99
2018-09-04T00:14:18.439Z,99
2018-09-04T00:15:20.542Z,100
2018-09-04T00:16:22.654Z,100
2018-09-04T00:17:24.786Z,99
2018-09-04T00:18:27.295Z,99
2018-09-04T00:19:29.678Z,99
2018-09-04T00:20:31.794Z,100
2018-09-04T00:21:33.916Z,100
2018-09-04T00:22:36.019Z,100
2018-09-04T00:23:38.142Z,100
2018-09-04T00:24:40.361Z,100
2018-09-04T00:25:42.482Z,100
2018-09-04T00:26:44.579Z,100
2018-09-04T00:27:46.694Z,100
2018-09-04T00:28:48.804Z,100
2018-09-04T00:29:50.906Z,99
2018-09-04T00:30:53.023Z,99
2018-09-04T00:31:55.410Z,99
2018-09-04T00:32:57.521Z,100
2018-09-04T00:33:59.641Z,100
2018-09-04T00:35:01.766Z,99
2018-09-04T00:36:04.557Z,99
2018-09-04T00:37:06.686Z,99
2018-09-04T00:38:08.780Z,99
2018-09-04T00:39:10.892Z,99
2018-09-04T00:40:13.299Z,99
2018-09-04T00:41:15.415Z,99
2018-09-04T00:42:17.806Z,99
2018-09-04T00:43:19.923Z,99
2018-09-04T00:44:22.313Z,99
2018-09-04T00:45:24.410Z,99
2018-09-04T00:46:26.539Z,99
2018-09-04T00:47:28.621Z,100
2018-09-04T00:48:30.734Z,100
2018-09-04T00:49:32.846Z,99
2018-09-04T00:50:34.963Z,100
2018-09-04T00:51:37.932Z,100
2018-09-04T00:52:40.357Z,100
2018-09-04T00:53:42.469Z,100
2018-09-04T00:54:44.865Z,100
2018-09-04T00:55:46.996Z,100
2018-09-04T00:56:49.115Z,100
2018-09-04T00:57:51.522Z,100
2018-09-04T00:58:53.662Z,100
2018-09-04T00:59:56.078Z,100
2018-09-04T01:00:58.175Z,100
2018-09-04T01:02:00.295Z,100
2018-09-04T01:03:03.132Z,100
2018-09-04T01:04:05.231Z,100
2018-09-04T01:05:07.347Z,100
2018-09-04T01:06:10.135Z,99
2018-09-04T01:07:12.227Z,99
2018-09-04T01:08:14.637Z,99
2018-09-04T01:09:17.042Z,99
2018-09-04T01:10:19.159Z,99
2018-09-04T01:11:21.264Z,99
2018-09-04T01:12:23.384Z,99
2018-09-04T01:13:25.497Z,99
2018-09-04T01:14:27.605Z,100
2018-09-04T01:15:29.712Z,100
2018-09-04T01:16:32.126Z,100
2018-09-04T01:17:34.640Z,99
2018-09-04T01:18:36.741Z,99
2018-09-04T01:19:38.850Z,99
2018-09-04T01:20:40.949Z,99
2018-09-04T01:21:43.061Z,99
2018-09-04T01:22:45.170Z,99
2018-09-04T01:23:47.292Z,99
2018-09-04T01:24:49.388Z,99
2018-09-04T01:25:51.504Z,99
2018-09-04T01:26:53.609Z,100
2018-09-04T01:27:55.709Z,100
2018-09-04T01:28:57.829Z,100
2018-09-04T01:29:59.924Z,99
2018-09-04T01:31:02.331Z,100
2018-09-04T01:32:04.441Z,100
2018-09-04T01:33:06.560Z,99
2018-09-04T01:34:08.658Z,99
2018-09-04T01:35:11.084Z,99
2018-09-04T01:36:13.196Z,99
2018-09-04T01:37:15.293Z,99
2018-09-04T01:38:17.709Z,99
2018-09-04T01:39:19.813Z,99
2018-09-04T01:40:21.914Z,99
2018-09-04T01:41:24.028Z,99
2018-09-04T01:42:26.148Z,99
2018-09-04T01:43:28.249Z,100
2018-09-04T01:44:30.684Z,99
2018-09-04T01:45:33.079Z,99
2018-09-04T01:46:35.193Z,99
2018-09-04T01:47:37.299Z,99
2018-09-04T01:48:39.434Z,99
2018-09-04T01:49:41.525Z,99
2018-09-04T01:50:43.633Z,100
2018-09-04T01:51:45.745Z,99
2018-09-04T01:52:48.151Z,99
2018-09-04T01:53:50.271Z,99
2018-09-04T01:54:52.668Z,99
2018-09-04T01:55:54.769Z,99
2018-09-04T01:56:56.881Z,99
2018-09-04T01:57:59.004Z,99
2018-09-04T01:59:01.110Z,99
2018-09-04T02:00:03.542Z,99
2018-09-04T02:01:05.933Z,99
2018-09-04T02:02:08.046Z,99
2018-09-04T02:03:10.428Z,99
2018-09-04T02:04:12.536Z,99
2018-09-04T02:05:14.654Z,99
2018-09-04T02:06:16.748Z,99
2018-09-04T02:07:18.864Z,100
2018-09-04T02:08:21.276Z,100
2018-09-04T02:09:23.693Z,100
2018-09-04T02:10:26.195Z,100
2018-09-04T02:11:28.586Z,100
2018-09-04T02:12:30.703Z,100
2018-09-04T02:13:33.419Z,100
2018-09-04T02:14:35.530Z,100
2018-09-04T02:15:37.623Z,99
2018-09-04T02:16:40.024Z,100
2018-09-04T02:17:42.125Z,100
2018-09-04T02:18:44.520Z,100
2018-09-04T02:19:46.637Z,100
2018-09-04T02:20:48.765Z,100
2018-09-04T02:21:50.850Z,100
2018-09-04T02:22:52.964Z,100
2018-09-04T02:23:55.068Z,100
2018-09-04T02:24:57.172Z,100
2018-09-04T02:25:59.276Z,100
2018-09-04T02:27:01.410Z,99
2018-09-04T02:28:03.833Z,99
2018-09-04T02:29:05.945Z,100
2018-09-04T02:30:08.429Z,100
2018-09-04T02:31:10.563Z,100
2018-09-04T02:32:12.952Z,99
2018-09-04T02:33:15.682Z,99
2018-09-04T02:34:17.805Z,99
2018-09-04T02:35:19.899Z,99
2018-09-04T02:36:22.015Z,99
2018-09-04T02:37:24.416Z,99
2018-09-04T02:38:26.523Z,99
2018-09-04T02:39:29.408Z,100
2018-09-04T02:40:31.524Z,100
2018-09-04T02:41:33.948Z,100
2018-09-04T02:42:36.045Z,100
2018-09-04T02:43:38.166Z,100
2018-09-04T02:44:40.262Z,100
2018-09-04T02:45:42.371Z,100
2018-09-04T02:46:44.481Z,100
2018-09-04T02:47:46.586Z,100
2018-09-04T02:48:48.685Z,100
2018-09-04T02:49:50.793Z,99
2018-09-04T02:50:53.493Z,99
2018-09-04T02:51:55.895Z,100
2018-09-04T02:52:58.302Z,100
2018-09-04T02:54:01.006Z,100
2018-09-04T02:55:03.110Z,100
2018-09-04T02:56:05.542Z,100
2018-09-04T02:57:07.651Z,100
2018-09-04T02:58:09.763Z,100
2018-09-04T02:59:12.191Z,100
2018-09-04T03:00:14.281Z,100
2018-09-04T03:01:17.096Z,100
2018-09-04T03:02:19.205Z,100
2018-09-04T03:03:21.928Z,100
2018-09-04T03:04:24.336Z,100
2018-09-04T03:05:27.018Z,100
2018-09-04T03:06:29.125Z,100
2018-09-04T03:07:31.240Z,100
2018-09-04T03:08:34.038Z,100
2018-09-04T03:09:36.159Z,100
2018-09-04T03:10:38.259Z,100
2018-09-04T03:11:40.366Z,100
2018-09-04T03:12:42.758Z,100
2018-09-04T03:13:44.880Z,100
2018-09-04T03:14:47.365Z,100
2018-09-04T03:15:49.468Z,100
2018-09-04T03:16:51.594Z,100
2018-09-04T03:17:53.690Z,100
2018-09-04T03:18:56.185Z,100
2018-09-04T03:19:58.296Z,100
2018-09-04T03:21:00.704Z,100
2018-09-04T03:22:02.789Z,100
2018-09-04T03:23:04.940Z,100
2018-09-04T03:24:06.999Z,100
2018-09-04T03:25:09.104Z,100
2018-09-04T03:26:11.913Z,100
2018-09-04T03:27:14.596Z,99
2018-09-04T03:28:16.691Z,100
2018-09-04T03:29:19.100Z,100
2018-09-04T03:30:22.072Z,100
2018-09-04T03:31:24.567Z,100
2018-09-04T03:32:26.681Z,100
2018-09-04T03:33:28.772Z,100
2018-09-04T03:34:31.277Z,100
2018-09-04T03:35:33.381Z,100
2018-09-04T03:36:35.494Z,100
2018-09-04T03:37:37.588Z,99
2018-09-04T03:38:39.706Z,100
2018-09-04T03:39:41.807Z,100
2018-09-04T03:40:44.307Z,99
2018-09-04T03:41:46.808Z,100
2018-09-04T03:42:48.930Z,100
2018-09-04T03:43:51.032Z,100
2018-09-04T03:44:53.148Z,100
2018-09-04T03:45:55.544Z,100
2018-09-04T03:46:58.466Z,100
2018-09-04T03:48:00.494Z,100
2018-09-04T03:49:02.591Z,100
2018-09-04T03:50:04.711Z,100
2018-09-04T03:51:06.804Z,100
2018-09-04T03:52:08.959Z,100
2018-09-04T03:53:11.040Z,100
2018-09-04T03:54:13.147Z,100
2018-09-04T03:55:15.247Z,100
2018-09-04T03:56:17.746Z,100
2018-09-04T03:57:19.842Z,100
2018-09-04T03:58:21.952Z,100
2018-09-04T03:59:24.454Z,100
2018-09-04T04:00:26.566Z,100
2018-09-04T04:01:28.770Z,100
2018-09-04T04:02:30.789Z,100
2018-09-04T04:03:33.184Z,100
2018-09-04T04:04:35.287Z,100
2018-09-04T04:05:37.398Z,100
2018-09-04T04:06:39.493Z,100
2018-09-04T04:07:41.603Z,100
2018-09-04T04:08:44.003Z,100
2018-09-04T04:09:46.412Z,100
2018-09-04T04:10:49.079Z,100
2018-09-04T04:11:51.220Z,100
2018-09-04T04:12:53.930Z,100
2018-09-04T04:13:56.027Z,100
2018-09-04T04:14:58.150Z,100
2018-09-04T04:16:00.243Z,100
2018-09-04T04:17:02.349Z,100
2018-09-04T04:18:04.450Z,100
2018-09-04T04:19:06.573Z,100
2018-09-04T04:20:08.665Z,100
2018-09-04T04:21:10.775Z,100
2018-09-04T04:22:12.886Z,100
2018-09-04T04:23:14.976Z,100
2018-09-04T04:24:17.094Z,100
2018-09-04T04:25:19.204Z,100
2018-09-04T04:26:21.300Z,100
2018-09-04T04:27:23.708Z,100
2018-09-04T04:28:26.150Z,100
2018-09-04T04:29:28.255Z,100
2018-09-04T04:30:30.371Z,100
2018-09-04T04:31:32.798Z,100
2018-09-04T04:32:34.909Z,100
2018-09-04T04:33:37.304Z,99
2018-09-04T04:34:39.415Z,99
2018-09-04T04:35:41.507Z,100
2018-09-04T04:36:43.618Z,100
2018-09-04T04:37:46.987Z,99
2018-09-04T04:38:49.143Z,99
2018-09-04T04:39:51.282Z,99
2018-09-04T04:40:53.678Z,99
2018-09-04T04:41:56.171Z,99
2018-09-04T04:42:58.266Z,99
2018-09-04T04:44:00.384Z,100
2018-09-04T04:45:02.479Z,100
2018-09-04T04:46:04.582Z,100
2018-09-04T04:47:07.005Z,99
2018-09-04T04:48:09.541Z,99
2018-09-04T04:49:11.947Z,100
2018-09-04T04:50:14.342Z,100
2018-09-04T04:51:16.742Z,100
2018-09-04T04:52:18.832Z,100
2018-09-04T04:53:20.948Z,100
2018-09-04T04:54:23.337Z,100
2018-09-04T04:55:25.752Z,100
2018-09-04T04:56:27.877Z,100
2018-09-04T04:57:29.979Z,100
2018-09-04T04:58:32.782Z,99
2018-09-04T04:59:34.880Z,99
2018-09-04T05:00:37.665Z,99
2018-09-04T05:01:39.777Z,100
2018-09-04T05:02:41.884Z,99
2018-09-04T05:03:43.997Z,99
2018-09-04T05:04:46.409Z,100
2018-09-04T05:05:48.508Z,100
2018-09-04T05:06:50.616Z,100
2018-09-04T05:07:52.735Z,100
2018-09-04T05:08:54.827Z,99
2018-09-04T05:09:56.939Z,99
2018-09-04T05:10:59.123Z,100
2018-09-04T05:12:01.157Z,100
2018-09-04T05:13:03.563Z,100
2018-09-04T05:14:05.658Z,100
2018-09-04T05:15:08.148Z,100
2018-09-04T05:16:10.248Z,99
2018-09-04T05:17:12.377Z,99
2018-09-04T05:18:14.468Z,99
2018-09-04T05:19:16.580Z,99
2018-09-04T05:20:19.393Z,99
2018-09-04T05:21:21.484Z,99
2018-09-04T05:22:23.920Z,99
2018-09-04T05:23:26.025Z,98
2018-09-04T05:24:28.130Z,99
2018-09-04T05:25:30.220Z,99
2018-09-04T05:26:32.330Z,99
2018-09-04T05:27:34.723Z,99
2018-09-04T05:28:37.137Z,98
2018-09-04T05:29:39.551Z,98
2018-09-04T05:30:41.642Z,98
2018-09-04T05:31:44.046Z,99
2018-09-04T05:32:46.165Z,99
2018-09-04T05:33:48.271Z,98
2018-09-04T05:34:50.369Z,98
2018-09-04T05:35:52.866Z,98
2018-09-04T05:36:54.987Z,98
2018-09-04T05:37:57.693Z,98
2018-09-04T05:39:00.490Z,98
2018-09-04T05:40:03.004Z,98
2018-09-04T05:41:05.732Z,98
2018-09-04T05:42:07.822Z,98
2018-09-04T05:43:09.944Z,98
2018-09-04T05:44:12.056Z,98
2018-09-04T05:45:14.152Z,98
2018-09-04T05:46:16.267Z,98
2018-09-04T05:47:18.366Z,98
2018-09-04T05:48:20.481Z,97
2018-09-04T05:49:22.582Z,97
2018-09-04T05:50:24.995Z,97
2018-09-04T05:51:27.386Z,97
2018-09-04T05:52:29.783Z,97
2018-09-04T05:53:31.904Z,97
2018-09-04T05:54:33.998Z,97
2018-09-04T05:55:36.406Z,97
2018-09-04T05:56:38.802Z,97
2018-09-04T05:57:41.208Z,97
2018-09-04T05:58:43.301Z,97
2018-09-04T05:59:45.421Z,97
2018-09-04T06:00:47.522Z,97
2018-09-04T06:01:49.932Z,97
2018-09-04T06:02:52.054Z,97
2018-09-04T06:03:54.155Z,97
2018-09-04T06:04:56.268Z,97
2018-09-04T06:05:58.678Z,97
2018-09-04T06:07:00.793Z,97
2018-09-04T06:08:02.890Z,97
2018-09-04T06:09:04.998Z,97
2018-09-04T06:10:07.096Z,96
2018-09-04T06:11:09.194Z,97
2018-09-04T06:12:11.308Z,97
2018-09-04T06:13:13.413Z,97
2018-09-04T06:14:15.838Z,97
2018-09-04T06:15:17.939Z,97
2018-09-04T06:16:20.378Z,97
2018-09-04T06:17:22.494Z,97
2018-09-04T06:18:24.892Z,97
2018-09-04T06:19:27.402Z,97
2018-09-04T06:20:29.510Z,97
2018-09-04T06:21:31.896Z,97
2018-09-04T06:22:33.991Z,96
2018-09-04T06:23:36.110Z,96
2018-09-04T06:24:38.491Z,96
2018-09-04T06:25:40.601Z,96
2018-09-04T06:26:43.020Z,95
2018-09-04T06:27:45.114Z,95
2018-09-04T06:28:47.227Z,95
2018-09-04T06:29:50.114Z,95
2018-09-04T06:30:52.223Z,95
2018-09-04T06:31:54.314Z,95
2018-09-04T06:32:56.430Z,95
2018-09-04T06:33:59.303Z,96
2018-09-04T06:35:01.397Z,95
2018-09-04T06:36:03.904Z,95
2018-09-04T06:37:06.001Z,95
2018-09-04T06:38:08.110Z,95
2018-09-04T06:39:10.514Z,95
2018-09-04T06:40:12.636Z,95
2018-09-04T06:41:14.731Z,95
2018-09-04T06:42:16.850Z,94
2018-09-04T06:43:18.952Z,95
2018-09-04T06:44:21.109Z,95
2018-09-04T06:45:23.226Z,95
2018-09-04T06:46:26.578Z,95
2018-09-04T06:47:29.034Z,95
2018-09-04T06:48:31.153Z,95
2018-09-04T06:49:33.252Z,95
2018-09-04T06:50:35.640Z,95
2018-09-04T06:51:37.755Z,94
2018-09-04T06:52:39.853Z,94
2018-09-04T06:53:42.259Z,93
2018-09-04T06:54:44.474Z,93
2018-09-04T06:55:46.492Z,93
2018-09-04T06:56:48.580Z,93
2018-09-04T06:57:50.728Z,92
2018-09-04T06:58:53.252Z,92
2018-09-04T06:59:55.357Z,92
2018-09-04T07:00:57.766Z,92
2018-09-04T07:02:00.260Z,91
2018-09-04T07:03:02.762Z,91
2018-09-04T07:04:04.865Z,91
2018-09-04T07:05:07.297Z,90
2018-09-04T07:06:09.483Z,89
2018-09-04T07:07:11.512Z,89
2018-09-04T07:08:13.626Z,89
2018-09-04T07:09:15.722Z,89
2018-09-04T07:10:17.838Z,89
2018-09-04T07:11:20.625Z,89
2018-09-04T07:12:22.725Z,88
2018-09-04T07:13:25.120Z,88
2018-09-04T07:14:27.238Z,88
2018-09-04T07:15:29.339Z,87
2018-09-04T07:16:31.843Z,88
2018-09-04T07:17:34.243Z,88
2018-09-04T07:18:36.637Z,88
2018-09-04T07:19:38.751Z,88
2018-09-04T07:20:41.254Z,88
2018-09-04T07:21:43.734Z,87
2018-09-04T07:22:45.851Z,87
2018-09-04T07:23:47.965Z,87
2018-09-04T07:24:50.063Z,88
2018-09-04T07:25:52.188Z,88
2018-09-04T07:26:54.677Z,88
2018-09-04T07:27:56.777Z,88
2018-09-04T07:28:59.268Z,88
2018-09-04T07:30:01.671Z,88
2018-09-04T07:31:04.076Z,88
2018-09-04T07:32:06.185Z,88
2018-09-04T07:33:08.292Z,88
2018-09-04T07:34:10.708Z,89
2018-09-04T07:35:12.803Z,88
2018-09-04T07:36:14.932Z,88
2018-09-04T07:37:17.331Z,88
2018-09-04T07:38:19.452Z,88
2018-09-04T07:39:21.557Z,89
2018-09-04T07:40:24.023Z,89
2018-09-04T07:41:26.453Z,89
2018-09-04T07:42:28.545Z,88
2018-09-04T07:43:30.686Z,87
2018-09-04T07:44:33.096Z,88
2018-09-04T07:45:35.194Z,87
2018-09-04T07:46:37.310Z,88
2018-09-04T07:47:39.464Z,88
2018-09-04T07:48:41.568Z,87
2018-09-04T07:49:44.228Z,86
2018-09-04T07:50:46.762Z,86
2018-09-04T07:51:49.245Z,86
2018-09-04T07:52:51.363Z,85
2018-09-04T07:53:54.029Z,85
2018-09-04T07:54:55.998Z,85
2018-09-04T07:55:58.124Z,84
2018-09-04T07:57:00.266Z,83
2018-09-04T07:58:02.657Z,83
2018-09-04T07:59:04.793Z,82
2018-09-04T08:00:06.932Z,81
2018-09-04T08:01:09.040Z,81
2018-09-04T08:02:11.145Z,81
2018-09-04T08:03:13.374Z,82
2018-09-04T08:04:15.576Z,81
2018-09-04T08:05:18.088Z,80
2018-09-04T08:06:20.261Z,81
2018-09-04T08:07:22.378Z,82
2018-09-04T08:08:24.541Z,81
2018-09-04T08:09:26.646Z,81
2018-09-04T08:10:29.138Z,79
2018-09-04T08:11:31.558Z,80
2018-09-04T08:12:33.662Z,78
2018-09-04T08:13:35.785Z,77
2018-09-04T08:14:37.974Z,78
2018-09-04T08:15:40.079Z,77
2018-09-04T08:16:42.210Z,77
2018-09-04T08:17:44.771Z,77
2018-09-04T08:18:46.877Z,76
2018-09-04T08:19:49.292Z,76
2018-09-04T08:20:51.978Z,76
2018-09-04T08:21:54.072Z,76
2018-09-04T08:22:56.551Z,76
2018-09-04T08:23:59.099Z,75
2018-09-04T08:25:01.593Z,75
2018-09-04T08:26:03.740Z,75
2018-09-04T08:27:06.186Z,74
2018-09-04T08:28:08.282Z,74
2018-09-04T08:29:10.485Z,73
2018-09-04T08:30:12.997Z,73
2018-09-04T08:31:15.389Z,74
2018-09-04T08:32:17.580Z,71
2018-09-04T08:33:21.068Z,70
2018-09-04T08:34:23.622Z,72
2018-09-04T08:35:25.752Z,72
2018-09-04T08:36:27.919Z,71
2018-09-04T08:37:30.016Z,71
2018-09-04T08:38:32.138Z,71
2018-09-04T08:39:34.265Z,71
2018-09-04T08:40:36.361Z,71
2018-09-04T08:41:38.525Z,70
2018-09-04T08:42:40.638Z,70
2018-09-04T08:43:42.761Z,71
2018-09-04T08:44:44.861Z,69
2018-09-04T08:45:46.990Z,69
2018-09-04T08:46:49.104Z,69
2018-09-04T08:47:51.888Z,71
2018-09-04T08:48:53.796Z,70
2018-09-04T08:49:55.922Z,70
2018-09-04T08:50:58.034Z,70
2018-09-04T08:52:00.155Z,69
2018-09-04T08:53:02.271Z,70
2018-09-04T08:54:04.402Z,69
2018-09-04T08:55:06.506Z,68
2018-09-04T08:56:08.630Z,68
2018-09-04T08:57:11.135Z,68
2018-09-04T08:58:13.251Z,66
2018-09-04T08:59:15.384Z,66
2018-09-04T09:00:17.501Z,67
2018-09-04T09:01:19.618Z,68
2018-09-04T09:02:21.748Z,69
2018-09-04T09:03:23.869Z,69
2018-09-04T09:04:25.987Z,67
2018-09-04T09:05:28.154Z,67
2018-09-04T09:06:30.230Z,67
2018-09-04T09:07:32.349Z,67
2018-09-04T09:08:34.456Z,64
2018-09-04T09:09:36.876Z,65
2018-09-04T09:10:38.991Z,63
2018-09-04T09:11:41.109Z,63
2018-09-04T09:12:43.247Z,63
2018-09-04T09:13:45.351Z,62
2018-09-04T09:14:47.798Z,62
2018-09-04T09:15:49.914Z,61
2018-09-04T09:16:52.677Z,61
2018-09-04T09:17:54.659Z,61
2018-09-04T09:18:56.789Z,63
2018-09-04T09:19:58.902Z,66
2018-09-04T09:21:01.014Z,65
2018-09-04T09:22:03.144Z,65
2018-09-04T09:23:05.254Z,66
2018-09-04T09:24:07.660Z,65
2018-09-04T09:25:10.109Z,65
2018-09-04T09:26:12.247Z,65
2018-09-04T09:27:14.360Z,64
2018-09-04T09:28:16.486Z,64
2018-09-04T09:29:18.597Z,63
2018-09-04T09:30:21.293Z,63
2018-09-04T09:31:23.425Z,62
2018-09-04T09:32:25.537Z,62
2018-09-04T09:33:27.653Z,60
2018-09-04T09:34:29.787Z,61
2018-09-04T09:35:31.914Z,62
2018-09-04T09:36:34.103Z,62
2018-09-04T09:37:36.590Z,63
2018-09-04T09:38:38.697Z,64
2018-09-04T09:39:41.119Z,65
2018-09-04T09:40:43.239Z,65
2018-09-04T09:41:45.363Z,64
2018-09-04T09:42:47.468Z,64
2018-09-04T09:43:49.599Z,62
2018-09-04T09:44:51.730Z,63
2018-09-04T09:45:53.845Z,62
2018-09-04T09:46:56.289Z,62
2018-09-04T09:47:58.399Z,63
2018-09-04T09:49:00.526Z,62
2018-09-04T09:50:02.949Z,61
2018-09-04T09:51:05.089Z,61
2018-09-04T09:52:07.491Z,58
2018-09-04T09:53:09.749Z,59
2018-09-04T09:54:12.819Z,58
2018-09-04T09:55:14.937Z,58
2018-09-04T09:56:17.142Z,57
2018-09-04T09:57:19.180Z,56
2018-09-04T09:58:21.291Z,57
2018-09-04T09:59:23.906Z,57
2018-09-04T10:00:26.416Z,56
2018-09-04T10:01:28.567Z,55
2018-09-04T10:02:30.655Z,54
2018-09-04T10:03:32.773Z,54
2018-09-04T10:04:34.916Z,55
2018-09-04T10:05:37.035Z,54
2018-09-04T10:06:39.488Z,52
2018-09-04T10:07:41.720Z,53
2018-09-04T10:08:43.741Z,54
2018-09-04T10:09:46.285Z,53
2018-09-04T10:10:48.337Z,52
2018-09-04T10:11:50.454Z,54
2018-09-04T10:12:52.582Z,54
2018-09-04T10:13:54.706Z,55
2018-09-04T10:14:56.864Z,54
2018-09-04T10:15:58.971Z,55
2018-09-04T10:17:01.491Z,56
2018-09-04T10:18:03.611Z,54
2018-09-04T10:19:06.122Z,54
2018-09-04T10:20:08.548Z,53
2018-09-04T10:21:10.721Z,52
2018-09-04T10:22:13.429Z,52
2018-09-04T10:23:15.558Z,53
2018-09-04T10:24:17.690Z,51
2018-09-04T10:25:19.804Z,51
2018-09-04T10:26:21.963Z,50
2018-09-04T10:27:24.073Z,51
2018-09-04T10:28:26.182Z,51
2018-09-04T10:29:28.335Z,50
2018-09-04T10:30:30.454Z,50
2018-09-04T10:31:32.573Z,49
2018-09-04T10:32:34.705Z,48
2018-09-04T10:33:37.159Z,49
2018-09-04T10:34:39.276Z,50
2018-09-04T10:35:41.886Z,49
2018-09-04T10:36:43.991Z,50
2018-09-04T10:37:46.118Z,52
2018-09-04T10:38:48.254Z,52
2018-09-04T10:39:50.404Z,52
2018-09-04T10:40:53.096Z,52
2018-09-04T10:41:55.238Z,53
2018-09-04T10:42:57.373Z,53
2018-09-04T10:43:59.492Z,52
2018-09-04T10:45:01.712Z,52
2018-09-04T10:46:04.227Z,51
2018-09-04T10:47:06.644Z,53
2018-09-04T10:48:08.764Z,49
2018-09-04T10:49:11.227Z,49
2018-09-04T10:50:13.342Z,49
2018-09-04T10:51:15.474Z,49
2018-09-04T10:52:17.905Z,48
2018-09-04T10:53:20.410Z,48
2018-09-04T10:54:22.549Z,49
2018-09-04T10:55:24.967Z,50
2018-09-04T10:56:27.407Z,50
2018-09-04T10:57:29.520Z,50
2018-09-04T10:58:31.662Z,49
2018-09-04T10:59:33.783Z,49
2018-09-04T11:00:35.912Z,49
2018-09-04T11:01:38.445Z,49
2018-09-04T11:02:40.851Z,49
2018-09-04T11:03:43.290Z,49
2018-09-04T11:04:45.707Z,50
2018-09-04T11:05:47.834Z,46
2018-09-04T11:06:49.952Z,46
2018-09-04T11:07:52.080Z,47
2018-09-04T11:08:54.593Z,47
2018-09-04T11:09:57.827Z,47
2018-09-04T11:10:59.824Z,47
2018-09-04T11:12:01.962Z,46
2018-09-04T11:13:04.082Z,45
2018-09-04T11:14:06.228Z,46
2018-09-04T11:15:08.349Z,46
2018-09-04T11:16:10.467Z,48
2018-09-04T11:17:12.975Z,47
2018-09-04T11:18:15.117Z,47
2018-09-04T11:19:17.237Z,49
2018-09-04T11:20:19.381Z,47
2018-09-04T11:21:21.495Z,46
2018-09-04T11:22:23.641Z,46
2018-09-04T11:23:25.758Z,47
2018-09-04T11:24:28.173Z,47
2018-09-04T11:25:30.308Z,46
2018-09-04T11:26:32.415Z,46
2018-09-04T11:27:34.551Z,45
2018-09-04T11:28:36.682Z,44
2018-09-04T11:29:38.813Z,44
2018-09-04T11:30:40.952Z,46
2018-09-04T11:31:43.378Z,46
2018-09-04T11:32:45.499Z,46
2018-09-04T11:33:47.627Z,45
2018-09-04T11:34:50.056Z,46
2018-09-04T11:35:52.572Z,46
2018-09-04T11:36:54.990Z,45
2018-09-04T11:37:57.516Z,45
2018-09-04T11:38:59.639Z,45
2018-09-04T11:40:01.755Z,45
2018-09-04T11:41:03.891Z,45
2018-09-04T11:42:06.008Z,47
2018-09-04T11:43:08.132Z,46
2018-09-04T11:44:10.277Z,45
2018-09-04T11:45:13.082Z,45
2018-09-04T11:46:15.205Z,45
2018-09-04T11:47:17.350Z,44
2018-09-04T11:48:19.471Z,45
2018-09-04T11:49:21.592Z,44
2018-09-04T11:50:23.728Z,46
2018-09-04T11:51:25.842Z,47
2018-09-04T11:52:28.106Z,47
2018-09-04T11:53:30.117Z,48
2018-09-04T11:54:32.252Z,46
2018-09-04T11:55:34.696Z,45
2018-09-04T11:56:36.794Z,44
2018-09-04T11:57:39.598Z,44
2018-09-04T11:58:41.717Z,44
2018-09-04T11:59:43.987Z,44
2018-09-04T12:00:45.977Z,43
2018-09-04T12:01:48.401Z,42
2018-09-04T12:02:50.529Z,43
2018-09-04T12:03:52.965Z,43
2018-09-04T12:04:55.366Z,44
2018-09-04T12:05:58.119Z,43
2018-09-04T12:07:00.259Z,44
2018-09-04T12:08:02.662Z,43
2018-09-04T12:09:04.791Z,44
2018-09-04T12:10:06.925Z,43
2018-09-04T12:11:09.436Z,42
2018-09-04T12:12:11.955Z,43
2018-09-04T12:13:15.004Z,42
2018-09-04T12:14:17.356Z,44
2018-09-04T12:15:19.484Z,44
2018-09-04T12:16:21.619Z,43
2018-09-04T12:17:23.739Z,42
2018-09-04T12:18:25.864Z,40
2018-09-04T12:19:28.006Z,40
2018-09-04T12:20:30.417Z,40
2018-09-04T12:21:32.946Z,39
2018-09-04T12:22:35.080Z,39
2018-09-04T12:23:37.492Z,40
2018-09-04T12:24:39.672Z,39
2018-09-04T12:25:41.774Z,38
2018-09-04T12:26:44.490Z,38
2018-09-04T12:27:47.190Z,39
2018-09-04T12:28:49.339Z,38
2018-09-04T12:29:51.459Z,39
2018-09-04T12:30:53.590Z,38
2018-09-04T12:31:55.726Z,38
2018-09-04T12:32:57.853Z,40
2018-09-04T12:34:00.094Z,40
2018-09-04T12:35:02.654Z,39
2018-09-04T12:36:04.789Z,39
2018-09-04T12:37:07.226Z,39
2018-09-04T12:38:09.342Z,40
2018-09-04T12:39:11.830Z,42
2018-09-04T12:40:13.913Z,41
2018-09-04T12:41:16.631Z,42
2018-09-04T12:42:18.811Z,42
2018-09-04T12:43:20.910Z,41
2018-09-04T12:44:23.538Z,40
2018-09-04T12:45:25.591Z,40
2018-09-04T12:46:27.730Z,42
2018-09-04T12:47:30.137Z,42
2018-09-04T12:48:32.667Z,42
2018-09-04T12:49:34.724Z,42
2018-09-04T12:50:36.843Z,41
2018-09-04T12:51:38.982Z,42
2018-09-04T12:52:41.512Z,42
2018-09-04T12:53:43.621Z,42
2018-09-04T12:54:46.166Z,43
2018-09-04T12:55:48.250Z,43
2018-09-04T12:56:50.365Z,42
2018-09-04T12:57:52.505Z,41
2018-09-04T12:58:55.013Z,43
2018-09-04T12:59:57.135Z,43
2018-09-04T13:00:59.251Z,41
2018-09-04T13:02:01.389Z,41
2018-09-04T13:03:03.504Z,41
2018-09-04T13:04:05.632Z,42
2018-09-04T13:05:08.154Z,43
2018-09-04T13:06:10.653Z,43
2018-09-04T13:07:12.788Z,43
2018-09-04T13:08:14.925Z,43
2018-09-04T13:09:17.051Z,43
2018-09-04T13:10:19.161Z,41
2018-09-04T13:11:21.293Z,41
2018-09-04T13:12:23.419Z,41
2018-09-04T13:13:25.559Z,40
2018-09-04T13:14:27.696Z,39
2018-09-04T13:15:30.891Z,40
2018-09-04T13:16:33.019Z,39
2018-09-04T13:17:35.132Z,40
2018-09-04T13:18:37.265Z,42
2018-09-04T13:19:39.800Z,42
2018-09-04T13:20:41.916Z,41
2018-09-04T13:21:44.051Z,41
2018-09-04T13:22:46.183Z,41
2018-09-04T13:23:48.593Z,41
2018-09-04T13:24:51.003Z,42
2018-09-04T13:25:53.135Z,42
2018-09-04T13:26:55.540Z,43
2018-09-04T13:27:57.691Z,43
2018-09-04T13:28:59.816Z,44
2018-09-04T13:30:01.938Z,44
2018-09-04T13:31:04.367Z,43
2018-09-04T13:32:06.484Z,42
2018-09-04T13:33:08.604Z,41
2018-09-04T13:34:11.393Z,43
2018-09-04T13:35:13.529Z,44
2018-09-04T13:36:15.934Z,44
2018-09-04T13:37:18.061Z,44
2018-09-04T13:38:20.192Z,45
2018-09-04T13:39:22.313Z,45
2018-09-04T13:40:24.440Z,44
2018-09-04T13:41:26.559Z,44
2018-09-04T13:42:28.689Z,44
2018-09-04T13:43:30.797Z,44
2018-09-04T13:44:32.930Z,44
2018-09-04T13:45:35.053Z,45
2018-09-04T13:46:37.175Z,45
2018-09-04T13:47:39.314Z,44
2018-09-04T13:48:41.819Z,45
2018-09-04T13:49:44.073Z,44
2018-09-04T13:50:46.651Z,45
2018-09-04T13:51:49.061Z,43
2018-09-04T13:52:51.392Z,43
2018-09-04T13:53:53.525Z,43
2018-09-04T13:54:55.951Z,44
2018-09-04T13:55:58.465Z,44
2018-09-04T13:57:00.588Z,43
2018-09-04T13:58:02.703Z,43
2018-09-04T13:59:05.539Z,43
2018-09-04T14:00:08.046Z,44
2018-09-04T14:01:10.191Z,45
2018-09-04T14:02:12.330Z,45
2018-09-04T14:03:14.842Z,45
2018-09-04T14:04:17.052Z,46
2018-09-04T14:05:19.565Z,44
2018-09-04T14:06:21.683Z,44
2018-09-04T14:07:23.796Z,44
2018-09-04T14:08:25.937Z,44
2018-09-04T14:09:28.053Z,44
2018-09-04T14:10:30.203Z,44
2018-09-04T14:11:32.346Z,43
2018-09-04T14:12:34.871Z,45
2018-09-04T14:13:37.009Z,44
2018-09-04T14:14:40.206Z,43
2018-09-04T14:15:42.342Z,44
2018-09-04T14:16:44.457Z,44
2018-09-04T14:17:46.612Z,44
2018-09-04T14:18:48.740Z,43
2018-09-04T14:19:50.865Z,42
2018-09-04T14:20:53.341Z,42
2018-09-04T14:21:55.806Z,41
2018-09-04T14:22:58.235Z,41
2018-09-04T14:24:00.668Z,41
2018-09-04T14:25:02.798Z,42
2018-09-04T14:26:05.332Z,43
2018-09-04T14:27:07.775Z,43
2018-09-04T14:28:10.639Z,43
2018-09-04T14:29:53.157Z,41
2018-09-04T14:30:17.695Z,39
2018-09-04T14:31:19.792Z,39
2018-09-04T14:32:21.908Z,40
2018-09-04T14:33:24.056Z,40
2018-09-04T14:34:26.189Z,42
2018-09-04T14:35:28.311Z,42
2018-09-04T14:36:30.572Z,42
2018-09-04T14:37:33.119Z,42
2018-09-04T14:38:35.257Z,42
2018-09-04T14:39:37.403Z,42
2018-09-04T14:40:39.538Z,43